createdAt,value
2023-05-02T00:00:55.246Z,0.56
2023-05-02T00:01:55.368Z,0.55
2023-05-02T00:02:55.461Z,0.55
2023-05-02T00:03:55.492Z,0.56
2023-05-02T00:04:55.379Z,0.55
2023-05-02T00:05:55.407Z,0.55
2023-05-02T00:06:55.571Z,0.57
2023-05-02T00:07:55.492Z,0.56
2023-05-02T00:08:55.523Z,0.57
2023-05-02T00:09:55.521Z,0.56
2023-05-02T00:10:55.580Z,0.56
2023-05-02T00:11:55.625Z,0.56
2023-05-02T00:12:55.628Z,0.57
2023-05-02T00:13:55.695Z,0.56
2023-05-02T00:14:55.796Z,0.55
2023-05-02T00:15:55.731Z,0.56
2023-05-02T00:16:55.789Z,0.57
2023-05-02T00:17:55.881Z,0.55
2023-05-02T00:18:55.852Z,0.55
2023-05-02T00:19:55.874Z,0.56
2023-05-02T00:20:55.922Z,0.56
2023-05-02T00:21:55.967Z,0.56
2023-05-02T00:22:56.015Z,0.55
2023-05-02T00:23:56.068Z,0.56
2023-05-02T00:24:56.063Z,0.56
2023-05-02T00:25:56.118Z,0.56
2023-05-02T00:26:56.171Z,0.55
2023-05-02T00:27:56.194Z,0.56
2023-05-02T00:28:56.248Z,0.56
2023-05-02T00:29:56.233Z,0.55
2023-05-02T00:30:56.299Z,0.56
2023-05-02T00:31:56.279Z,0.55
2023-05-02T00:32:56.415Z,0.55
2023-05-02T00:33:56.358Z,0.56
2023-05-02T00:34:56.390Z,0.54
2023-05-02T00:35:56.560Z,0.54
2023-05-02T00:36:56.480Z,0.56
2023-05-02T00:37:56.514Z,0.56
2023-05-02T00:38:56.551Z,0.55
2023-05-02T00:39:56.602Z,0.55
2023-05-02T00:40:56.601Z,0.56
2023-05-02T00:41:56.657Z,0.55
2023-05-02T00:42:56.690Z,0.56
2023-05-02T00:43:56.698Z,0.55
2023-05-02T00:44:56.748Z,0.54
2023-05-02T00:45:56.783Z,0.55
2023-05-02T00:46:56.922Z,0.55
2023-05-02T00:47:56.822Z,0.54
2023-05-02T00:48:56.837Z,0.55
2023-05-02T00:49:56.934Z,0.56
2023-05-02T00:50:56.917Z,0.54
2023-05-02T00:51:56.940Z,0.55
2023-05-02T00:52:56.990Z,0.55
2023-05-02T00:53:56.956Z,0.56
2023-05-02T00:54:56.949Z,0.56
2023-05-02T00:55:56.961Z,0.55
2023-05-02T00:56:56.969Z,0.54
2023-05-02T00:57:56.942Z,0.56
2023-05-02T00:58:56.949Z,0.55
2023-05-02T00:59:57.041Z,0.55
2023-05-02T01:00:56.989Z,0.55
2023-05-02T01:01:57.098Z,0.54
2023-05-02T01:02:57.125Z,0.55
2023-05-02T01:03:57.175Z,0.55
2023-05-02T01:04:57.133Z,0.55
2023-05-02T01:05:57.141Z,0.55
2023-05-02T01:06:57.165Z,0.56
2023-05-02T01:07:57.219Z,0.54
2023-05-02T01:08:57.239Z,0.56
2023-05-02T01:09:57.621Z,0.56
2023-05-02T01:10:57.328Z,0.56
2023-05-02T01:11:57.366Z,0.54
2023-05-02T01:12:57.389Z,0.55
2023-05-02T01:13:57.440Z,0.56
2023-05-02T01:14:57.413Z,0.56
2023-05-02T01:15:57.535Z,0.55
2023-05-02T01:16:57.460Z,0.55
2023-05-02T01:17:57.547Z,0.54
2023-05-02T01:18:57.527Z,0.55
2023-05-02T01:19:57.638Z,0.54
2023-05-02T01:20:57.572Z,0.55
2023-05-02T01:21:57.546Z,0.55
2023-05-02T01:22:57.577Z,0.55
2023-05-02T01:23:57.587Z,0.54
2023-05-02T01:24:57.592Z,0.54
2023-05-02T01:25:57.628Z,0.55
2023-05-02T01:26:57.618Z,0.55
2023-05-02T01:27:57.642Z,0.55
2023-05-02T01:28:57.646Z,0.55
2023-05-02T01:29:57.724Z,0.54
2023-05-02T01:30:57.638Z,0.55
2023-05-02T01:31:57.719Z,0.54
2023-05-02T01:32:57.735Z,0.54
2023-05-02T01:33:57.666Z,0.55
2023-05-02T01:34:57.673Z,0.54
2023-05-02T01:35:57.715Z,0.56
2023-05-02T01:36:57.731Z,0.55
2023-05-02T01:37:57.858Z,0.55
2023-05-02T01:38:57.875Z,0.56
2023-05-02T01:39:57.900Z,0.55
2023-05-02T01:40:57.826Z,0.56
2023-05-02T01:41:57.845Z,0.56
2023-05-02T01:42:57.858Z,0.54
2023-05-02T01:43:57.840Z,0.55
2023-05-02T01:44:57.796Z,0.55
2023-05-02T01:45:57.828Z,0.55
2023-05-02T01:46:57.839Z,0.56
2023-05-02T01:47:57.903Z,0.54
2023-05-02T01:48:57.865Z,0.55
2023-05-02T01:49:58.016Z,0.54
2023-05-02T01:50:57.840Z,0.55
2023-05-02T01:51:57.856Z,0.54
2023-05-02T01:52:57.844Z,0.56
2023-05-02T01:53:57.903Z,0.55
2023-05-02T01:54:57.899Z,0.55
2023-05-02T01:55:57.866Z,0.55
2023-05-02T01:56:57.902Z,0.55
2023-05-02T01:57:57.887Z,0.55
2023-05-02T01:58:57.926Z,0.54
2023-05-02T01:59:58.174Z,0.54
2023-05-02T02:00:57.919Z,0.55
2023-05-02T02:01:57.926Z,0.54
2023-05-02T02:02:57.984Z,0.55
2023-05-02T02:03:57.979Z,0.54
2023-05-02T02:04:57.937Z,0.56
2023-05-02T02:05:58.025Z,0.54
2023-05-02T02:06:57.915Z,0.55
2023-05-02T02:07:57.949Z,0.54
2023-05-02T02:08:57.952Z,0.55
2023-05-02T02:09:58.145Z,0.55
2023-05-02T02:10:58.002Z,0.56
2023-05-02T02:11:58.029Z,0.54
2023-05-02T02:12:58.120Z,0.56
2023-05-02T02:13:58.134Z,0.54
2023-05-02T02:14:58.194Z,0.55
2023-05-02T02:15:58.196Z,0.56
2023-05-02T02:16:58.297Z,0.55
2023-05-02T02:17:58.312Z,0.54
2023-05-02T02:18:58.318Z,0.55
2023-05-02T02:19:58.434Z,0.56
2023-05-02T02:20:58.392Z,0.55
2023-05-02T02:21:58.419Z,0.54
2023-05-02T02:22:58.492Z,0.56
2023-05-02T02:23:58.527Z,0.55
2023-05-02T02:24:58.578Z,0.54
2023-05-02T02:25:58.555Z,0.54
2023-05-02T02:26:58.578Z,0.55
2023-05-02T02:27:58.679Z,0.55
2023-05-02T02:28:58.639Z,0.56
2023-05-02T02:29:58.901Z,0.56
2023-05-02T02:30:58.778Z,0.54
2023-05-02T02:31:58.756Z,0.54
2023-05-02T02:32:58.809Z,0.56
2023-05-02T02:33:58.822Z,0.55
2023-05-02T02:34:58.873Z,0.55
2023-05-02T02:35:58.890Z,0.55
2023-05-02T02:36:58.916Z,0.55
2023-05-02T02:37:58.935Z,0.56
2023-05-02T02:38:59.084Z,0.55
2023-05-02T02:39:59.230Z,0.55
2023-05-02T02:40:59.141Z,0.55
2023-05-02T02:41:59.119Z,0.54
2023-05-02T02:42:59.147Z,0.54
2023-05-02T02:43:59.179Z,0.55
2023-05-02T02:44:59.185Z,0.56
2023-05-02T02:45:59.328Z,0.56
2023-05-02T02:46:59.225Z,0.56
2023-05-02T02:47:59.292Z,0.56
2023-05-02T02:48:59.253Z,0.55
2023-05-02T02:49:59.488Z,0.55
2023-05-02T02:50:59.252Z,0.55
2023-05-02T02:51:59.304Z,0.54
2023-05-02T02:52:59.318Z,0.54
2023-05-02T02:53:59.371Z,0.54
2023-05-02T02:54:59.417Z,0.54
2023-05-02T02:55:59.450Z,0.54
2023-05-02T02:56:59.495Z,0.56
2023-05-02T02:57:59.493Z,0.55
2023-05-02T02:58:59.574Z,0.55
2023-05-02T02:59:59.883Z,0.54
2023-05-02T03:00:59.620Z,0.55
2023-05-02T03:01:59.687Z,0.55
2023-05-02T03:02:59.732Z,0.54
2023-05-02T03:03:59.768Z,0.54
2023-05-02T03:04:59.773Z,0.55
2023-05-02T03:05:59.832Z,0.55
2023-05-02T03:06:59.876Z,0.55
2023-05-02T03:07:59.853Z,0.55
2023-05-02T03:08:59.937Z,0.55
2023-05-02T03:10:00.291Z,0.55
2023-05-02T03:10:59.970Z,0.55
2023-05-02T03:11:59.985Z,0.55
2023-05-02T03:13:00.028Z,0.55
2023-05-02T03:14:00.116Z,0.56
2023-05-02T03:15:00.108Z,0.55
2023-05-02T03:16:00.152Z,0.56
2023-05-02T03:17:00.148Z,0.56
2023-05-02T03:18:00.231Z,0.55
2023-05-02T03:19:00.134Z,0.55
2023-05-02T03:20:00.307Z,0.56
2023-05-02T03:21:00.185Z,0.55
2023-05-02T03:22:00.229Z,0.56
2023-05-02T03:23:00.287Z,0.55
2023-05-02T03:24:00.324Z,0.55
2023-05-02T03:25:00.365Z,0.53
2023-05-02T03:26:00.380Z,0.55
2023-05-02T03:27:00.410Z,0.53
2023-05-02T03:28:00.433Z,0.56
2023-05-02T03:29:00.464Z,0.55
2023-05-02T03:30:00.780Z,0.55
2023-05-02T03:31:00.566Z,0.54
2023-05-02T03:32:00.494Z,0.55
2023-05-02T03:33:00.616Z,0.55
2023-05-02T03:34:00.590Z,0.54
2023-05-02T03:35:00.580Z,0.55
2023-05-02T03:36:00.643Z,0.54
2023-05-02T03:37:00.648Z,0.55
2023-05-02T03:38:00.692Z,0.54
2023-05-02T03:39:00.742Z,0.57
2023-05-02T03:40:01.094Z,0.56
2023-05-02T03:41:00.799Z,0.56
2023-05-02T03:42:00.836Z,0.56
2023-05-02T03:43:00.854Z,0.55
2023-05-02T03:44:00.936Z,0.55
2023-05-02T03:45:00.934Z,0.54
2023-05-02T03:46:00.991Z,0.56
2023-05-02T03:47:01.088Z,0.55
2023-05-02T03:48:01.226Z,0.55
2023-05-02T03:49:01.129Z,0.55
2023-05-02T03:50:01.424Z,0.56
2023-05-02T03:51:01.196Z,0.56
2023-05-02T03:52:01.279Z,0.55
2023-05-02T03:53:01.268Z,0.55
2023-05-02T03:54:01.279Z,0.54
2023-05-02T03:55:01.305Z,0.56
2023-05-02T03:56:01.334Z,0.56
2023-05-02T03:57:01.353Z,0.56
2023-05-02T03:58:01.396Z,0.54
2023-05-02T03:59:01.415Z,0.56
2023-05-02T04:00:01.769Z,0.56
2023-05-02T04:01:01.452Z,0.55
2023-05-02T04:02:01.532Z,0.55
2023-05-02T04:03:01.610Z,0.56
2023-05-02T04:04:01.586Z,0.55
2023-05-02T04:05:01.606Z,0.56
2023-05-02T04:06:01.658Z,0.55
2023-05-02T04:07:01.672Z,0.56
2023-05-02T04:08:01.699Z,0.55
2023-05-02T04:09:01.748Z,0.56
2023-05-02T04:10:02.066Z,0.55
2023-05-02T04:11:01.821Z,0.56
2023-05-02T04:12:01.886Z,0.55
2023-05-02T04:13:01.887Z,0.55
2023-05-02T04:14:01.975Z,0.56
2023-05-02T04:15:02.007Z,0.56
2023-05-02T04:16:02.066Z,0.56
2023-05-02T04:17:02.152Z,0.55
2023-05-02T04:18:02.226Z,0.56
2023-05-02T04:19:02.290Z,0.57
2023-05-02T04:20:05.041Z,0.56
2023-05-02T04:21:02.354Z,0.57
2023-05-02T04:22:02.308Z,0.56
2023-05-02T04:23:02.327Z,0.56
2023-05-02T04:24:02.351Z,0.55
2023-05-02T04:25:02.299Z,0.56
2023-05-02T04:26:02.303Z,0.56
2023-05-02T04:27:02.301Z,0.55
2023-05-02T04:28:02.274Z,0.56
2023-05-02T04:29:02.278Z,0.55
2023-05-02T04:30:02.591Z,0.55
2023-05-02T04:31:02.297Z,0.56
2023-05-02T04:32:02.259Z,0.55
2023-05-02T04:33:02.305Z,0.56
2023-05-02T04:34:02.247Z,0.56
2023-05-02T04:35:02.223Z,0.55
2023-05-02T04:36:02.218Z,0.56
2023-05-02T04:37:02.209Z,0.56
2023-05-02T04:38:02.206Z,0.56
2023-05-02T04:39:02.216Z,0.56
2023-05-02T04:40:02.399Z,0.56
2023-05-02T04:41:09.111Z,0.54
2023-05-02T04:42:03.169Z,0.54
2023-05-02T04:43:02.161Z,0.55
2023-05-02T04:44:02.178Z,0.55
2023-05-02T04:45:02.143Z,0.54
2023-05-02T04:46:02.202Z,0.56
2023-05-02T04:47:02.157Z,0.55
2023-05-02T04:48:02.178Z,0.55
2023-05-02T04:49:02.115Z,0.54
2023-05-02T04:50:02.435Z,0.56
2023-05-02T04:51:02.156Z,0.55
2023-05-02T04:52:02.106Z,0.56
2023-05-02T04:53:02.125Z,0.56
2023-05-02T04:54:02.151Z,0.55
2023-05-02T04:55:02.211Z,0.54
2023-05-02T04:56:02.334Z,0.55
2023-05-02T04:57:02.330Z,0.56
2023-05-02T04:58:02.339Z,0.55
2023-05-02T04:59:02.387Z,0.55
2023-05-02T05:00:02.567Z,0.54
2023-05-02T05:01:09.516Z,0.56
2023-05-02T05:02:02.515Z,0.56
2023-05-02T05:03:02.569Z,0.56
2023-05-02T05:04:02.596Z,0.56
2023-05-02T05:05:02.449Z,0.56
2023-05-02T05:06:02.571Z,0.56
2023-05-02T05:07:02.395Z,0.56
2023-05-02T05:08:02.423Z,0.56
2023-05-02T05:09:02.411Z,0.55
2023-05-02T05:10:02.777Z,0.54
2023-05-02T05:11:02.411Z,0.56
2023-05-02T05:12:02.384Z,0.55
2023-05-02T05:13:02.378Z,0.56
2023-05-02T05:14:02.403Z,0.55
2023-05-02T05:15:02.411Z,0.55
2023-05-02T05:16:02.433Z,0.56
2023-05-02T05:17:02.353Z,0.55
2023-05-02T05:18:02.393Z,0.55
2023-05-02T05:19:02.383Z,0.56
2023-05-02T05:20:02.526Z,0.55
2023-05-02T05:21:02.340Z,0.56
2023-05-02T05:22:02.336Z,0.55
2023-05-02T05:23:02.300Z,0.55
2023-05-02T05:24:02.326Z,0.54
2023-05-02T05:25:02.314Z,0.54
2023-05-02T05:26:02.276Z,0.55
2023-05-02T05:27:02.307Z,0.55
2023-05-02T05:28:02.295Z,0.55
2023-05-02T05:29:02.257Z,0.54
2023-05-02T05:30:02.580Z,0.54
2023-05-02T05:31:02.256Z,0.54
2023-05-02T05:32:02.342Z,0.54
2023-05-02T05:33:02.318Z,0.55
2023-05-02T05:34:02.665Z,0.55
2023-05-02T05:35:02.240Z,0.54
2023-05-02T05:36:02.211Z,0.54
2023-05-02T05:37:02.233Z,0.50
2023-05-02T05:38:02.254Z,0.50
2023-05-02T05:39:02.600Z,0.52
2023-05-02T05:40:02.712Z,0.54
2023-05-02T05:41:02.276Z,0.57
2023-05-02T05:42:02.396Z,0.58
2023-05-02T05:43:02.344Z,0.57
2023-05-02T05:44:02.379Z,0.60
2023-05-02T05:45:02.387Z,0.64
2023-05-02T05:46:09.488Z,0.65
2023-05-02T05:47:02.473Z,0.65
2023-05-02T05:48:02.474Z,0.66
2023-05-02T05:49:02.650Z,0.67
2023-05-02T05:50:02.708Z,0.69
2023-05-02T05:51:02.729Z,0.76
2023-05-02T05:52:03.057Z,0.75
2023-05-02T05:53:02.367Z,0.72
2023-05-02T05:54:02.382Z,0.85
2023-05-02T05:55:02.347Z,0.89
2023-05-02T05:56:02.381Z,0.96
2023-05-02T05:57:02.363Z,1.02
2023-05-02T05:58:02.327Z,1.08
2023-05-02T05:59:02.347Z,1.10
2023-05-02T06:00:02.631Z,1.15
2023-05-02T06:01:02.313Z,1.19
2023-05-02T06:02:02.329Z,1.22
2023-05-02T06:03:02.374Z,1.29
2023-05-02T06:04:02.417Z,1.33
2023-05-02T06:05:02.825Z,1.40
2023-05-02T06:06:02.334Z,1.45
2023-05-02T06:07:02.278Z,1.48
2023-05-02T06:08:02.273Z,1.55
2023-05-02T06:09:02.244Z,1.56
2023-05-02T06:10:02.518Z,1.58
2023-05-02T06:11:03.210Z,1.57
2023-05-02T06:12:02.229Z,1.62
2023-05-02T06:13:02.231Z,1.65
2023-05-02T06:14:02.188Z,1.70
2023-05-02T06:15:02.653Z,1.75
2023-05-02T06:16:02.228Z,1.83
2023-05-02T06:17:02.191Z,1.70
2023-05-02T06:18:02.273Z,1.70
2023-05-02T06:19:02.177Z,1.75
2023-05-02T06:20:02.826Z,1.78
2023-05-02T06:21:02.189Z,1.86
2023-05-02T06:22:02.217Z,1.86
2023-05-02T06:23:02.245Z,1.93
2023-05-02T06:24:02.169Z,1.97
2023-05-02T06:25:02.109Z,1.99
2023-05-02T06:26:02.179Z,2.06
2023-05-02T06:27:02.125Z,2.04
2023-05-02T06:28:02.148Z,2.10
2023-05-02T06:29:02.160Z,2.10
2023-05-02T06:30:03.102Z,2.15
2023-05-02T06:31:02.394Z,2.19
2023-05-02T06:32:02.312Z,2.21
2023-05-02T06:33:02.370Z,2.11
2023-05-02T06:34:02.376Z,2.08
2023-05-02T06:35:02.392Z,2.09
2023-05-02T06:36:02.525Z,2.06
2023-05-02T06:37:02.406Z,2.12
2023-05-02T06:38:03.172Z,2.00
2023-05-02T06:39:02.428Z,1.79
2023-05-02T06:40:02.771Z,1.57
2023-05-02T06:41:02.431Z,1.61
2023-05-02T06:42:02.447Z,1.68
2023-05-02T06:43:03.499Z,1.60
2023-05-02T06:44:02.396Z,1.69
2023-05-02T06:45:02.397Z,1.77
2023-05-02T06:46:02.415Z,1.91
2023-05-02T06:47:02.430Z,2.07
2023-05-02T06:48:02.437Z,2.25
2023-05-02T06:49:02.372Z,2.43
2023-05-02T06:50:02.891Z,2.54
2023-05-02T06:51:02.332Z,2.64
2023-05-02T06:52:02.383Z,2.70
2023-05-02T06:53:02.338Z,2.76
2023-05-02T06:54:02.428Z,2.91
2023-05-02T06:55:02.731Z,2.99
2023-05-02T06:56:02.362Z,3.03
2023-05-02T06:57:02.378Z,2.93
2023-05-02T06:58:02.416Z,2.88
2023-05-02T06:59:02.379Z,3.07
2023-05-02T07:00:03.002Z,3.21
2023-05-02T07:01:02.543Z,3.31
2023-05-02T07:02:05.164Z,3.40
2023-05-02T07:03:02.564Z,3.51
2023-05-02T07:04:02.583Z,3.61
2023-05-02T07:05:02.498Z,3.70
2023-05-02T07:06:02.577Z,3.63
2023-05-02T07:07:02.477Z,3.79
2023-05-02T07:08:02.508Z,3.81
2023-05-02T07:09:02.473Z,3.92
2023-05-02T07:10:02.872Z,3.99
2023-05-02T07:11:02.456Z,4.23
2023-05-02T07:12:04.621Z,4.22
2023-05-02T07:13:02.448Z,4.23
2023-05-02T07:14:02.453Z,4.27
2023-05-02T07:15:02.666Z,4.36
2023-05-02T07:16:02.486Z,4.48
2023-05-02T07:17:03.046Z,4.73
2023-05-02T07:18:02.478Z,4.81
2023-05-02T07:19:02.418Z,4.90
2023-05-02T07:20:02.722Z,4.94
2023-05-02T07:21:02.398Z,5.14
2023-05-02T07:22:02.409Z,5.19
2023-05-02T07:23:02.370Z,5.34
2023-05-02T07:24:02.365Z,5.50
2023-05-02T07:25:02.670Z,5.91
2023-05-02T07:26:03.856Z,6.13
2023-05-02T07:27:02.348Z,6.15
2023-05-02T07:28:02.405Z,6.20
2023-05-02T07:29:02.345Z,6.30
2023-05-02T07:30:03.096Z,6.50
2023-05-02T07:31:02.645Z,7.17
2023-05-02T07:32:02.366Z,7.05
2023-05-02T07:33:02.373Z,7.67
2023-05-02T07:34:02.301Z,7.81
2023-05-02T07:35:02.287Z,7.51
2023-05-02T07:36:02.697Z,7.65
2023-05-02T07:37:02.296Z,8.22
2023-05-02T07:38:02.295Z,10.51
2023-05-02T07:39:02.270Z,10.83
2023-05-02T07:40:02.705Z,10.19
2023-05-02T07:41:02.672Z,8.03
2023-05-02T07:42:02.224Z,5.65
2023-05-02T07:43:02.239Z,5.36
2023-05-02T07:44:02.244Z,4.65
2023-05-02T07:45:02.231Z,4.06
2023-05-02T07:46:02.260Z,2.64
2023-05-02T07:47:02.194Z,1.51
2023-05-02T07:48:02.311Z,1.02
2023-05-02T07:49:02.188Z,0.81
2023-05-02T07:50:02.574Z,0.68
2023-05-02T07:51:02.204Z,0.62
2023-05-02T07:52:02.207Z,0.54
2023-05-02T07:53:02.152Z,0.52
2023-05-02T07:54:02.143Z,0.52
2023-05-02T07:55:02.152Z,0.51
2023-05-02T07:56:02.178Z,0.52
2023-05-02T07:57:02.324Z,0.51
2023-05-02T07:58:02.133Z,0.51
2023-05-02T07:59:03.702Z,0.56
2023-05-02T08:00:02.446Z,0.56
2023-05-02T08:01:02.125Z,0.57
2023-05-02T08:02:02.119Z,0.57
2023-05-02T08:03:02.198Z,0.63
2023-05-02T08:04:02.310Z,0.71
2023-05-02T08:05:02.110Z,0.68
2023-05-02T08:06:02.150Z,0.62
2023-05-02T08:07:02.068Z,0.55
2023-05-02T08:08:02.089Z,0.61
2023-05-02T08:09:02.057Z,0.63
2023-05-02T08:10:02.340Z,0.67
2023-05-02T08:11:02.021Z,0.66
2023-05-02T08:12:02.038Z,0.65
2023-05-02T08:13:02.047Z,0.71
2023-05-02T08:14:02.013Z,0.65
2023-05-02T08:15:02.013Z,0.64
2023-05-02T08:16:02.093Z,0.59
2023-05-02T08:17:02.006Z,0.60
2023-05-02T08:18:02.043Z,0.51
2023-05-02T08:19:01.974Z,0.50
2023-05-02T08:20:02.327Z,0.51
2023-05-02T08:21:01.998Z,0.53
2023-05-02T08:22:02.002Z,0.54
2023-05-02T08:23:01.971Z,0.52
2023-05-02T08:24:01.976Z,0.50
2023-05-02T08:25:01.953Z,0.49
2023-05-02T08:26:01.968Z,0.50
2023-05-02T08:27:01.940Z,0.53
2023-05-02T08:28:01.957Z,0.52
2023-05-02T08:29:01.932Z,0.54
2023-05-02T08:30:01.947Z,0.59
2023-05-02T08:31:01.926Z,0.61
2023-05-02T08:32:01.956Z,0.69
2023-05-02T08:33:01.929Z,0.85
2023-05-02T08:34:01.895Z,1.20
2023-05-02T08:35:01.907Z,1.45
2023-05-02T08:36:01.896Z,1.64
2023-05-02T08:37:01.860Z,1.28
2023-05-02T08:38:01.897Z,1.46
2023-05-02T08:39:01.848Z,1.39
2023-05-02T08:40:02.206Z,1.78
2023-05-02T08:41:02.206Z,1.50
2023-05-02T08:42:01.861Z,1.83
2023-05-02T08:43:01.914Z,2.10
2023-05-02T08:44:01.927Z,2.38
2023-05-02T08:45:01.949Z,2.58
2023-05-02T08:46:02.202Z,2.80
2023-05-02T08:47:02.109Z,3.06
2023-05-02T08:48:02.119Z,3.15
2023-05-02T08:49:02.047Z,3.25
2023-05-02T08:50:02.586Z,3.38
2023-05-02T08:51:02.110Z,3.00
2023-05-02T08:52:02.190Z,2.60
2023-05-02T08:53:02.166Z,2.55
2023-05-02T08:54:02.164Z,2.86
2023-05-02T08:55:02.696Z,2.13
2023-05-02T08:56:02.241Z,1.41
2023-05-02T08:57:02.250Z,0.91
2023-05-02T08:58:02.278Z,0.64
2023-05-02T08:59:02.309Z,0.49
2023-05-02T09:00:02.516Z,0.45
2023-05-02T09:01:02.464Z,0.45
2023-05-02T09:02:02.408Z,0.50
2023-05-02T09:03:02.485Z,0.53
2023-05-02T09:04:02.481Z,0.52
2023-05-02T09:05:02.665Z,0.51
2023-05-02T09:06:02.519Z,0.53
2023-05-02T09:07:02.478Z,0.50
2023-05-02T09:08:02.482Z,0.50
2023-05-02T09:09:02.506Z,0.50
2023-05-02T09:10:02.556Z,0.51
2023-05-02T09:11:02.625Z,0.60
2023-05-02T09:12:02.661Z,0.69
2023-05-02T09:13:02.739Z,0.78
2023-05-02T09:14:02.809Z,0.90
2023-05-02T09:15:02.843Z,0.98
2023-05-02T09:16:03.081Z,1.02
2023-05-02T09:17:03.041Z,1.23
2023-05-02T09:18:03.161Z,1.51
2023-05-02T09:19:03.098Z,1.46
2023-05-02T09:20:03.123Z,2.02
2023-05-02T09:21:03.233Z,2.08
2023-05-02T09:22:03.209Z,2.59
2023-05-02T09:23:03.267Z,2.34
2023-05-02T09:24:03.513Z,1.71
2023-05-02T09:25:03.398Z,0.87
2023-05-02T09:26:03.408Z,0.88
2023-05-02T09:27:03.609Z,1.11
2023-05-02T09:28:03.541Z,1.14
2023-05-02T09:29:03.609Z,1.26
2023-05-02T09:30:03.669Z,1.46
2023-05-02T09:31:03.711Z,1.75
2023-05-02T09:32:03.747Z,2.09
2023-05-02T09:33:03.868Z,2.39
2023-05-02T09:34:03.789Z,2.91
2023-05-02T09:35:03.857Z,3.15
2023-05-02T09:36:03.905Z,2.84
2023-05-02T09:37:04.221Z,3.31
2023-05-02T09:38:04.040Z,3.71
2023-05-02T09:39:03.994Z,3.74
2023-05-02T09:40:04.046Z,3.95
2023-05-02T09:41:04.248Z,4.09
2023-05-02T09:42:04.115Z,3.55
2023-05-02T09:43:04.099Z,3.25
2023-05-02T09:44:04.142Z,3.49
2023-05-02T09:45:04.167Z,3.59
2023-05-02T09:46:04.265Z,3.24
2023-05-02T09:47:04.257Z,3.88
2023-05-02T09:48:04.338Z,2.45
2023-05-02T09:49:04.341Z,1.59
2023-05-02T09:50:04.381Z,1.12
2023-05-02T09:51:04.424Z,1.03
2023-05-02T09:52:04.462Z,0.95
2023-05-02T09:53:04.553Z,0.80
2023-05-02T09:54:04.590Z,0.68
2023-05-02T09:55:04.648Z,0.56
2023-05-02T09:56:04.706Z,0.50
2023-05-02T09:57:04.729Z,0.49
2023-05-02T09:58:04.815Z,0.50
2023-05-02T09:59:04.845Z,0.50
2023-05-02T10:00:04.904Z,0.55
2023-05-02T10:01:05.006Z,0.59
2023-05-02T10:02:05.058Z,0.63
2023-05-02T10:03:05.167Z,0.65
2023-05-02T10:04:05.174Z,0.70
2023-05-02T10:05:05.193Z,0.72
2023-05-02T10:06:05.790Z,0.74
2023-05-02T10:07:05.323Z,0.77
2023-05-02T10:08:05.367Z,0.77
2023-05-02T10:09:05.441Z,0.75
2023-05-02T10:10:05.472Z,0.77
2023-05-02T10:11:05.542Z,0.74
2023-05-02T10:12:05.597Z,0.70
2023-05-02T10:13:05.626Z,0.75
2023-05-02T10:14:05.612Z,0.77
2023-05-02T10:15:05.602Z,0.74
2023-05-02T10:16:05.714Z,0.79
2023-05-02T10:17:05.671Z,0.86
2023-05-02T10:18:05.754Z,0.89
2023-05-02T10:19:05.729Z,0.82
2023-05-02T10:20:05.758Z,0.88
2023-05-02T10:21:05.777Z,0.94
2023-05-02T10:22:05.784Z,0.99
2023-05-02T10:23:05.810Z,0.91
2023-05-02T10:24:05.890Z,0.84
2023-05-02T10:25:05.920Z,0.82
2023-05-02T10:26:05.981Z,0.79
2023-05-02T10:27:06.280Z,0.74
2023-05-02T10:28:06.075Z,0.66
2023-05-02T10:29:06.131Z,0.65
2023-05-02T10:30:06.201Z,0.61
2023-05-02T10:31:06.259Z,0.55
2023-05-02T10:32:06.498Z,0.55
2023-05-02T10:33:06.380Z,0.53
2023-05-02T10:34:06.345Z,0.55
2023-05-02T10:35:06.377Z,0.51
2023-05-02T10:36:06.751Z,0.51
2023-05-02T10:37:06.465Z,0.48
2023-05-02T10:38:06.527Z,0.39
2023-05-02T10:39:06.571Z,0.42
2023-05-02T10:40:06.666Z,0.48
2023-05-02T10:41:06.659Z,0.60
2023-05-02T10:42:06.803Z,0.85
2023-05-02T10:43:06.651Z,0.91
2023-05-02T10:44:06.633Z,1.43
2023-05-02T10:45:06.656Z,1.52
2023-05-02T10:46:06.725Z,1.13
2023-05-02T10:47:06.706Z,1.63
2023-05-02T10:48:06.777Z,2.04
2023-05-02T10:49:06.850Z,1.30
2023-05-02T10:50:06.847Z,0.77
2023-05-02T10:51:06.870Z,0.52
2023-05-02T10:52:07.305Z,0.65
2023-05-02T10:53:06.870Z,0.57
2023-05-02T10:54:06.906Z,0.84
2023-05-02T10:55:06.900Z,0.75
2023-05-02T10:56:06.897Z,0.73
2023-05-02T10:57:06.964Z,0.74
2023-05-02T10:58:06.932Z,0.62
2023-05-02T10:59:06.947Z,0.54
2023-05-02T11:00:06.955Z,0.54
2023-05-02T11:01:07.022Z,0.63
2023-05-02T11:02:07.400Z,0.69
2023-05-02T11:03:07.149Z,0.95
2023-05-02T11:04:07.017Z,1.20
2023-05-02T11:05:07.119Z,2.18
2023-05-02T11:06:07.077Z,3.43
2023-05-02T11:07:07.037Z,4.54
2023-05-02T11:08:07.072Z,5.25
2023-05-02T11:09:07.054Z,5.87
2023-05-02T11:10:07.128Z,6.90
2023-05-02T11:11:07.098Z,5.99
2023-05-02T11:12:07.097Z,6.05
2023-05-02T11:13:07.074Z,2.62
2023-05-02T11:14:07.094Z,1.96
2023-05-02T11:15:07.121Z,1.73
2023-05-02T11:16:07.210Z,1.88
2023-05-02T11:17:07.149Z,2.82
2023-05-02T11:18:07.193Z,3.92
2023-05-02T11:19:07.164Z,5.80
2023-05-02T11:20:07.201Z,4.80
2023-05-02T11:21:07.239Z,2.96
2023-05-02T11:22:07.337Z,3.21
2023-05-02T11:23:07.346Z,5.04
2023-05-02T11:24:07.378Z,5.40
2023-05-02T11:25:07.386Z,4.82
2023-05-02T11:26:07.412Z,4.38
2023-05-02T11:27:07.388Z,4.95
2023-05-02T11:28:07.398Z,7.96
2023-05-02T11:29:07.387Z,10.36
2023-05-02T11:30:07.446Z,12.52
2023-05-02T11:31:07.437Z,14.45
2023-05-02T11:32:07.882Z,17.11
2023-05-02T11:33:07.553Z,18.16
2023-05-02T11:34:07.537Z,20.01
2023-05-02T11:35:07.587Z,20.14
2023-05-02T11:36:07.619Z,20.46
2023-05-02T11:37:07.812Z,22.67
2023-05-02T11:38:07.615Z,23.67
2023-05-02T11:39:07.694Z,22.12
2023-05-02T11:40:07.710Z,16.11
2023-05-02T11:41:07.701Z,17.55
2023-05-02T11:42:07.757Z,19.39
2023-05-02T11:43:08.301Z,21.43
2023-05-02T11:44:07.790Z,22.54
2023-05-02T11:45:07.801Z,22.83
2023-05-02T11:46:07.896Z,22.17
2023-05-02T11:47:07.885Z,21.37
2023-05-02T11:48:08.004Z,16.03
2023-05-02T11:49:09.306Z,16.84
2023-05-02T11:50:07.991Z,12.54
2023-05-02T11:51:08.005Z,13.27
2023-05-02T11:52:08.054Z,14.38
2023-05-02T11:53:08.792Z,9.20
2023-05-02T11:54:08.072Z,8.90
2023-05-02T11:55:09.670Z,9.09
2023-05-02T11:56:08.053Z,11.66
2023-05-02T11:57:08.054Z,13.26
2023-05-02T11:58:08.076Z,14.09
2023-05-02T11:59:08.121Z,15.13
2023-05-02T12:00:08.249Z,14.06
2023-05-02T12:01:09.533Z,11.24
2023-05-02T12:02:08.290Z,8.94
2023-05-02T12:03:08.444Z,8.14
2023-05-02T12:04:08.449Z,9.40
2023-05-02T12:05:08.343Z,9.29
2023-05-02T12:06:08.398Z,10.94
2023-05-02T12:07:10.234Z,13.02
2023-05-02T12:08:08.374Z,14.11
2023-05-02T12:09:08.307Z,14.09
2023-05-02T12:10:08.324Z,13.63
2023-05-02T12:11:08.311Z,13.81
2023-05-02T12:12:08.287Z,14.58
2023-05-02T12:13:10.017Z,14.61
2023-05-02T12:14:08.289Z,13.77
2023-05-02T12:15:08.357Z,12.74
2023-05-02T12:16:08.423Z,13.48
2023-05-02T12:17:08.454Z,9.76
2023-05-02T12:18:08.578Z,11.65
2023-05-02T12:19:09.296Z,8.90
2023-05-02T12:20:08.556Z,7.97
2023-05-02T12:21:08.561Z,6.75
2023-05-02T12:22:08.587Z,8.50
2023-05-02T12:23:08.607Z,9.35
2023-05-02T12:24:08.632Z,9.26
2023-05-02T12:25:08.664Z,10.22
2023-05-02T12:26:08.722Z,8.93
2023-05-02T12:27:08.731Z,8.65
2023-05-02T12:28:08.752Z,7.45
2023-05-02T12:29:08.761Z,7.47
2023-05-02T12:30:08.810Z,6.79
2023-05-02T12:31:08.864Z,5.24
2023-05-02T12:32:08.783Z,6.18
2023-05-02T12:33:08.847Z,7.24
2023-05-02T12:34:08.879Z,9.20
2023-05-02T12:35:08.831Z,10.76
2023-05-02T12:36:08.835Z,11.27
2023-05-02T12:37:08.902Z,11.45
2023-05-02T12:38:08.910Z,11.04
2023-05-02T12:39:08.975Z,11.59
2023-05-02T12:40:09.041Z,12.16
2023-05-02T12:41:09.050Z,12.59
2023-05-02T12:42:09.128Z,12.85
2023-05-02T12:43:09.170Z,13.44
2023-05-02T12:44:09.219Z,13.83
2023-05-02T12:45:09.269Z,13.55
2023-05-02T12:46:09.329Z,14.40
2023-05-02T12:47:09.420Z,14.13
2023-05-02T12:48:09.403Z,14.28
2023-05-02T12:49:09.664Z,15.12
2023-05-02T12:50:09.468Z,14.86
2023-05-02T12:51:09.501Z,15.72
2023-05-02T12:52:09.606Z,16.09
2023-05-02T12:53:09.603Z,16.52
2023-05-02T12:54:09.632Z,16.68
2023-05-02T12:55:09.654Z,16.98
2023-05-02T12:56:09.694Z,16.51
2023-05-02T12:57:09.706Z,16.78
2023-05-02T12:58:09.711Z,16.31
2023-05-02T12:59:09.742Z,16.77
2023-05-02T13:00:09.760Z,17.44
2023-05-02T13:01:09.819Z,16.45
2023-05-02T13:02:09.771Z,15.60
2023-05-02T13:03:09.923Z,15.05
2023-05-02T13:04:09.744Z,15.01
2023-05-02T13:05:09.783Z,14.58
2023-05-02T13:06:09.870Z,8.15
2023-05-02T13:07:09.794Z,10.07
2023-05-02T13:08:09.822Z,7.90
2023-05-02T13:09:09.809Z,9.52
2023-05-02T13:10:09.885Z,9.04
2023-05-02T13:11:09.868Z,9.11
2023-05-02T13:12:09.878Z,10.43
2023-05-02T13:13:09.874Z,10.26
2023-05-02T13:14:09.931Z,8.46
2023-05-02T13:15:09.959Z,9.14
2023-05-02T13:16:09.974Z,10.53